sensor_id;sensor_type;location;lat;lon;timestamp;temperature;humidity
26821;DHT22;37186;51.394;5.454;2023-04-03T00:02:47;7.80;74.80
26821;DHT22;37186;51.394;5.454;2023-04-03T00:05:48;7.80;74.80
26821;DHT22;37186;51.394;5.454;2023-04-03T00:08:49;7.70;74.90
26821;DHT22;37186;51.394;5.454;2023-04-03T00:11:50;7.70;74.90
26821;DHT22;37186;51.394;5.454;2023-04-03T00:14:50;7.70;74.90
26821;DHT22;37186;51.394;5.454;2023-04-03T00:17:51;7.60;75.00
26821;DHT22;37186;51.394;5.454;2023-04-03T00:20:51;7.60;74.90
26821;DHT22;37186;51.394;5.454;2023-04-03T00:23:52;7.60;74.90
26821;DHT22;37186;51.394;5.454;2023-04-03T00:26:52;7.50;74.90
26821;DHT22;37186;51.394;5.454;2023-04-03T00:29:53;7.50;74.80
26821;DHT22;37186;51.394;5.454;2023-04-03T00:32:54;7.50;74.60
26821;DHT22;37186;51.394;5.454;2023-04-03T00:35:54;7.50;74.70
26821;DHT22;37186;51.394;5.454;2023-04-03T00:38:55;7.40;74.80
26821;DHT22;37186;51.394;5.454;2023-04-03T00:41:55;7.40;74.60
26821;DHT22;37186;51.394;5.454;2023-04-03T00:47:57;7.30;74.80
26821;DHT22;37186;51.394;5.454;2023-04-03T00:51:00;7.30;74.70
26821;DHT22;37186;51.394;5.454;2023-04-03T00:54:05;7.30;74.70
26821;DHT22;37186;51.394;5.454;2023-04-03T00:57:07;7.20;74.70
26821;DHT22;37186;51.394;5.454;2023-04-03T01:00:11;7.20;74.80
26821;DHT22;37186;51.394;5.454;2023-04-03T01:03:12;7.20;74.80
26821;DHT22;37186;51.394;5.454;2023-04-03T01:06:14;7.10;74.80
26821;DHT22;37186;51.394;5.454;2023-04-03T01:09:16;7.10;74.90
26821;DHT22;37186;51.394;5.454;2023-04-03T01:15:24;7.10;74.90
26821;DHT22;37186;51.394;5.454;2023-04-03T01:18:26;7.00;74.70
26821;DHT22;37186;51.394;5.454;2023-04-03T01:24:37;7.00;74.90
26821;DHT22;37186;51.394;5.454;2023-04-03T01:27:39;6.90;74.90
26821;DHT22;37186;51.394;5.454;2023-04-03T01:30:45;6.90;74.90
26821;DHT22;37186;51.394;5.454;2023-04-03T01:33:47;6.90;74.90
26821;DHT22;37186;51.394;5.454;2023-04-03T01:36:48;6.80;74.80
26821;DHT22;37186;51.394;5.454;2023-04-03T01:39:49;6.80;74.90
26821;DHT22;37186;51.394;5.454;2023-04-03T01:42:49;6.80;74.90
26821;DHT22;37186;51.394;5.454;2023-04-03T01:45:50;6.80;74.80
26821;DHT22;37186;51.394;5.454;2023-04-03T01:48:52;6.70;75.00
26821;DHT22;37186;51.394;5.454;2023-04-03T01:51:53;6.70;74.90
26821;DHT22;37186;51.394;5.454;2023-04-03T01:54:53;6.70;74.90
26821;DHT22;37186;51.394;5.454;2023-04-03T01:57:54;6.70;75.00
26821;DHT22;37186;51.394;5.454;2023-04-03T02:00:55;6.60;75.00
26821;DHT22;37186;51.394;5.454;2023-04-03T02:03:56;6.60;75.00
26821;DHT22;37186;51.394;5.454;2023-04-03T02:06:56;6.60;75.00
26821;DHT22;37186;51.394;5.454;2023-04-03T02:09:57;6.60;74.80
26821;DHT22;37186;51.394;5.454;2023-04-03T02:12:57;6.50;75.00
26821;DHT22;37186;51.394;5.454;2023-04-03T02:15:58;6.50;75.90
26821;DHT22;37186;51.394;5.454;2023-04-03T02:18:59;6.50;74.90
26821;DHT22;37186;51.394;5.454;2023-04-03T02:21:59;6.40;74.90
26821;DHT22;37186;51.394;5.454;2023-04-03T02:25:00;6.40;74.80
26821;DHT22;37186;51.394;5.454;2023-04-03T02:28:01;6.40;74.90
26821;DHT22;37186;51.394;5.454;2023-04-03T02:31:02;6.40;74.90
26821;DHT22;37186;51.394;5.454;2023-04-03T02:34:03;6.30;74.90
26821;DHT22;37186;51.394;5.454;2023-04-03T02:37:03;6.40;74.90
26821;DHT22;37186;51.394;5.454;2023-04-03T02:40:04;6.30;74.80
26821;DHT22;37186;51.394;5.454;2023-04-03T02:43:06;6.30;75.00
26821;DHT22;37186;51.394;5.454;2023-04-03T02:46:07;6.30;74.90
26821;DHT22;37186;51.394;5.454;2023-04-03T02:49:07;6.30;75.00
26821;DHT22;37186;51.394;5.454;2023-04-03T02:52:08;6.20;74.80
26821;DHT22;37186;51.394;5.454;2023-04-03T02:55:08;6.20;74.80
26821;DHT22;37186;51.394;5.454;2023-04-03T02:58:13;6.20;75.00
26821;DHT22;37186;51.394;5.454;2023-04-03T03:01:14;6.20;75.00
26821;DHT22;37186;51.394;5.454;2023-04-03T03:04:15;6.10;75.00
26821;DHT22;37186;51.394;5.454;2023-04-03T03:07:15;6.10;75.00
26821;DHT22;37186;51.394;5.454;2023-04-03T03:10:16;6.10;74.90
26821;DHT22;37186;51.394;5.454;2023-04-03T03:13:17;6.10;75.00
26821;DHT22;37186;51.394;5.454;2023-04-03T03:16:17;6.10;75.00
26821;DHT22;37186;51.394;5.454;2023-04-03T03:19:18;6.10;75.00
26821;DHT22;37186;51.394;5.454;2023-04-03T03:22:19;6.00;75.00
26821;DHT22;37186;51.394;5.454;2023-04-03T03:25:19;6.00;75.00
26821;DHT22;37186;51.394;5.454;2023-04-03T03:28:20;6.00;75.00
26821;DHT22;37186;51.394;5.454;2023-04-03T03:31:20;6.00;75.20
26821;DHT22;37186;51.394;5.454;2023-04-03T03:34:21;6.00;75.10
26821;DHT22;37186;51.394;5.454;2023-04-03T03:37:22;6.00;75.20
26821;DHT22;37186;51.394;5.454;2023-04-03T03:40:22;6.00;75.20
26821;DHT22;37186;51.394;5.454;2023-04-03T03:43:23;5.90;75.00
26821;DHT22;37186;51.394;5.454;2023-04-03T03:46:23;5.90;75.10
26821;DHT22;37186;51.394;5.454;2023-04-03T03:49:24;5.90;75.20
26821;DHT22;37186;51.394;5.454;2023-04-03T03:52:24;5.90;75.20
26821;DHT22;37186;51.394;5.454;2023-04-03T03:55:26;5.90;75.10
26821;DHT22;37186;51.394;5.454;2023-04-03T03:58:27;5.90;76.00
26821;DHT22;37186;51.394;5.454;2023-04-03T04:01:27;5.90;75.20
26821;DHT22;37186;51.394;5.454;2023-04-03T04:04:28;5.90;75.20
26821;DHT22;37186;51.394;5.454;2023-04-03T04:07:29;5.90;75.20
26821;DHT22;37186;51.394;5.454;2023-04-03T04:10:30;5.90;75.20
26821;DHT22;37186;51.394;5.454;2023-04-03T04:13:30;5.80;75.20
26821;DHT22;37186;51.394;5.454;2023-04-03T04:16:31;5.80;75.20
26821;DHT22;37186;51.394;5.454;2023-04-03T04:19:31;5.80;75.00
26821;DHT22;37186;51.394;5.454;2023-04-03T04:22:33;5.80;74.90
26821;DHT22;37186;51.394;5.454;2023-04-03T04:25:33;5.70;75.00
26821;DHT22;37186;51.394;5.454;2023-04-03T04:28:34;5.70;75.10
26821;DHT22;37186;51.394;5.454;2023-04-03T04:31:35;5.70;75.10
26821;DHT22;37186;51.394;5.454;2023-04-03T04:34:35;5.70;75.20
26821;DHT22;37186;51.394;5.454;2023-04-03T04:37:36;5.70;75.00
26821;DHT22;37186;51.394;5.454;2023-04-03T04:40:36;5.70;75.10
26821;DHT22;37186;51.394;5.454;2023-04-03T04:43:38;5.70;75.10
26821;DHT22;37186;51.394;5.454;2023-04-03T04:46:38;5.70;75.10
26821;DHT22;37186;51.394;5.454;2023-04-03T04:49:39;5.70;75.00
26821;DHT22;37186;51.394;5.454;2023-04-03T04:52:39;5.60;75.10
26821;DHT22;37186;51.394;5.454;2023-04-03T04:55:40;5.60;75.00
26821;DHT22;37186;51.394;5.454;2023-04-03T04:58:40;5.60;75.10
26821;DHT22;37186;51.394;5.454;2023-04-03T05:01:41;5.60;75.10
26821;DHT22;37186;51.394;5.454;2023-04-03T05:04:42;5.60;75.10
26821;DHT22;37186;51.394;5.454;2023-04-03T05:07:42;5.50;75.10
26821;DHT22;37186;51.394;5.454;2023-04-03T05:10:44;5.50;75.10
26821;DHT22;37186;51.394;5.454;2023-04-03T05:13:45;5.50;75.10
26821;DHT22;37186;51.394;5.454;2023-04-03T05:16:46;5.50;75.90
26821;DHT22;37186;51.394;5.454;2023-04-03T05:19:47;5.50;75.00
26821;DHT22;37186;51.394;5.454;2023-04-03T05:22:48;5.40;75.10
26821;DHT22;37186;51.394;5.454;2023-04-03T05:25:48;5.40;75.10
26821;DHT22;37186;51.394;5.454;2023-04-03T05:28:49;5.40;75.10
26821;DHT22;37186;51.394;5.454;2023-04-03T05:31:50;5.40;75.10
26821;DHT22;37186;51.394;5.454;2023-04-03T05:34:50;5.40;75.10
26821;DHT22;37186;51.394;5.454;2023-04-03T05:37:51;5.40;75.90
26821;DHT22;37186;51.394;5.454;2023-04-03T05:40:52;5.40;75.10
26821;DHT22;37186;51.394;5.454;2023-04-03T05:43:52;5.30;75.10
26821;DHT22;37186;51.394;5.454;2023-04-03T05:46:53;5.30;75.10
26821;DHT22;37186;51.394;5.454;2023-04-03T05:49:54;5.30;75.10
26821;DHT22;37186;51.394;5.454;2023-04-03T05:52:56;5.20;75.20
26821;DHT22;37186;51.394;5.454;2023-04-03T05:55:58;5.30;75.20
26821;DHT22;37186;51.394;5.454;2023-04-03T05:58:59;5.30;75.20
26821;DHT22;37186;51.394;5.454;2023-04-03T06:01:59;5.30;75.30
26821;DHT22;37186;51.394;5.454;2023-04-03T06:05:01;5.30;75.20
26821;DHT22;37186;51.394;5.454;2023-04-03T06:08:02;5.30;75.20
26821;DHT22;37186;51.394;5.454;2023-04-03T06:11:03;5.30;75.30
26821;DHT22;37186;51.394;5.454;2023-04-03T06:14:04;5.30;75.30
26821;DHT22;37186;51.394;5.454;2023-04-03T06:17:04;5.30;75.40
26821;DHT22;37186;51.394;5.454;2023-04-03T06:20:06;5.30;75.40
26821;DHT22;37186;51.394;5.454;2023-04-03T06:23:08;5.30;75.40
26821;DHT22;37186;51.394;5.454;2023-04-03T06:26:09;5.30;75.50
26821;DHT22;37186;51.394;5.454;2023-04-03T06:29:09;5.30;75.50
26821;DHT22;37186;51.394;5.454;2023-04-03T06:32:10;5.30;75.60
26821;DHT22;37186;51.394;5.454;2023-04-03T06:35:10;5.30;75.50
26821;DHT22;37186;51.394;5.454;2023-04-03T06:38:11;5.40;75.60
26821;DHT22;37186;51.394;5.454;2023-04-03T06:41:12;5.40;75.50
26821;DHT22;37186;51.394;5.454;2023-04-03T06:44:12;5.40;75.90
26821;DHT22;37186;51.394;5.454;2023-04-03T06:47:16;5.40;75.60
26821;DHT22;37186;51.394;5.454;2023-04-03T06:50:17;5.40;75.70
26821;DHT22;37186;51.394;5.454;2023-04-03T06:53:17;5.40;75.60
26821;DHT22;37186;51.394;5.454;2023-04-03T06:56:19;5.50;75.70
26821;DHT22;37186;51.394;5.454;2023-04-03T06:59:19;5.50;75.70
26821;DHT22;37186;51.394;5.454;2023-04-03T07:02:20;5.50;75.80
26821;DHT22;37186;51.394;5.454;2023-04-03T07:05:21;5.50;75.70
26821;DHT22;37186;51.394;5.454;2023-04-03T07:08:21;5.50;75.70
26821;DHT22;37186;51.394;5.454;2023-04-03T07:11:24;5.50;75.70
26821;DHT22;37186;51.394;5.454;2023-04-03T07:14:24;5.60;75.90
26821;DHT22;37186;51.394;5.454;2023-04-03T07:17:25;5.60;75.90
26821;DHT22;37186;51.394;5.454;2023-04-03T07:20:25;5.60;75.90
26821;DHT22;37186;51.394;5.454;2023-04-03T07:23:26;5.60;75.90
26821;DHT22;37186;51.394;5.454;2023-04-03T07:26:27;5.70;75.90
26821;DHT22;37186;51.394;5.454;2023-04-03T07:29:27;5.70;76.00
26821;DHT22;37186;51.394;5.454;2023-04-03T07:32:28;5.70;76.00
26821;DHT22;37186;51.394;5.454;2023-04-03T07:35:29;5.80;76.10
26821;DHT22;37186;51.394;5.454;2023-04-03T07:38:29;5.80;76.10
26821;DHT22;37186;51.394;5.454;2023-04-03T07:41:30;5.80;76.00
26821;DHT22;37186;51.394;5.454;2023-04-03T07:44:31;5.90;76.10
26821;DHT22;37186;51.394;5.454;2023-04-03T07:47:32;5.90;76.10
26821;DHT22;37186;51.394;5.454;2023-04-03T07:50:33;6.00;76.10
26821;DHT22;37186;51.394;5.454;2023-04-03T07:53:33;6.00;76.10
26821;DHT22;37186;51.394;5.454;2023-04-03T07:56:34;6.00;76.10
26821;DHT22;37186;51.394;5.454;2023-04-03T07:59:34;6.10;76.20
26821;DHT22;37186;51.394;5.454;2023-04-03T08:02:35;6.10;76.20
26821;DHT22;37186;51.394;5.454;2023-04-03T08:05:37;6.10;76.20
26821;DHT22;37186;51.394;5.454;2023-04-03T08:08:38;6.20;76.30
26821;DHT22;37186;51.394;5.454;2023-04-03T08:11:39;6.20;77.00
26821;DHT22;37186;51.394;5.454;2023-04-03T08:14:40;6.30;76.30
26821;DHT22;37186;51.394;5.454;2023-04-03T08:17:40;6.30;76.40
26821;DHT22;37186;51.394;5.454;2023-04-03T08:20:41;6.40;76.20
26821;DHT22;37186;51.394;5.454;2023-04-03T08:23:42;6.40;76.20
26821;DHT22;37186;51.394;5.454;2023-04-03T08:26:43;6.50;77.10
26821;DHT22;37186;51.394;5.454;2023-04-03T08:29:43;6.50;76.20
26821;DHT22;37186;51.394;5.454;2023-04-03T08:32:44;6.50;76.20
26821;DHT22;37186;51.394;5.454;2023-04-03T08:35:45;6.50;76.10
26821;DHT22;37186;51.394;5.454;2023-04-03T08:38:45;6.60;76.10
26821;DHT22;37186;51.394;5.454;2023-04-03T08:41:46;6.60;76.10
26821;DHT22;37186;51.394;5.454;2023-04-03T08:45:07;6.70;76.00
26821;DHT22;37186;51.394;5.454;2023-04-03T08:48:17;6.70;76.10
26821;DHT22;37186;51.394;5.454;2023-04-03T08:51:20;6.70;76.00
26821;DHT22;37186;51.394;5.454;2023-04-03T08:54:35;6.80;76.10
26821;DHT22;37186;51.394;5.454;2023-04-03T08:57:42;6.80;76.10
26821;DHT22;37186;51.394;5.454;2023-04-03T09:01:00;6.80;76.10
26821;DHT22;37186;51.394;5.454;2023-04-03T09:04:03;6.90;76.00
26821;DHT22;37186;51.394;5.454;2023-04-03T09:07:20;6.90;76.10
26821;DHT22;37186;51.394;5.454;2023-04-03T09:10:26;7.00;76.10
26821;DHT22;37186;51.394;5.454;2023-04-03T09:13:36;7.00;76.00
26821;DHT22;37186;51.394;5.454;2023-04-03T09:22:53;7.10;75.80
26821;DHT22;37186;51.394;5.454;2023-04-03T09:26:01;7.10;75.70
26821;DHT22;37186;51.394;5.454;2023-04-03T09:29:06;7.20;75.70
26821;DHT22;37186;51.394;5.454;2023-04-03T09:32:36;7.20;75.40
26821;DHT22;37186;51.394;5.454;2023-04-03T09:35:37;7.30;75.20
26821;DHT22;37186;51.394;5.454;2023-04-03T09:38:40;7.30;75.20
26821;DHT22;37186;51.394;5.454;2023-04-03T09:42:03;7.30;75.80
26821;DHT22;37186;51.394;5.454;2023-04-03T09:45:05;7.30;74.40
26821;DHT22;37186;51.394;5.454;2023-04-03T09:51:15;7.40;74.80
26821;DHT22;37186;51.394;5.454;2023-04-03T09:54:32;7.40;74.30
26821;DHT22;37186;51.394;5.454;2023-04-03T09:57:33;7.40;74.70
26821;DHT22;37186;51.394;5.454;2023-04-03T10:00:36;7.50;74.80
26821;DHT22;37186;51.394;5.454;2023-04-03T10:03:37;7.50;75.40
26821;DHT22;37186;51.394;5.454;2023-04-03T10:06:42;7.50;74.30
26821;DHT22;37186;51.394;5.454;2023-04-03T10:09:58;7.50;74.50
26821;DHT22;37186;51.394;5.454;2023-04-03T10:13:11;7.60;74.70
26821;DHT22;37186;51.394;5.454;2023-04-03T10:16:15;7.60;74.70
26821;DHT22;37186;51.394;5.454;2023-04-03T10:19:31;7.70;74.70
26821;DHT22;37186;51.394;5.454;2023-04-03T10:23:14;7.70;74.70
26821;DHT22;37186;51.394;5.454;2023-04-03T10:26:35;7.80;74.60
26821;DHT22;37186;51.394;5.454;2023-04-03T10:29:50;7.80;74.60
26821;DHT22;37186;51.394;5.454;2023-04-03T10:33:05;7.80;74.10
26821;DHT22;37186;51.394;5.454;2023-04-03T10:39:48;8.00;74.30
26821;DHT22;37186;51.394;5.454;2023-04-03T10:43:09;8.00;73.90
26821;DHT22;37186;51.394;5.454;2023-04-03T10:46:27;8.00;74.00
26821;DHT22;37186;51.394;5.454;2023-04-03T10:49:51;8.10;73.40
26821;DHT22;37186;51.394;5.454;2023-04-03T11:02:39;8.30;73.80
26821;DHT22;37186;51.394;5.454;2023-04-03T11:05:44;8.30;73.20
26821;DHT22;37186;51.394;5.454;2023-04-03T11:09:03;8.30;73.10
26821;DHT22;37186;51.394;5.454;2023-04-03T11:12:24;8.40;73.60
26821;DHT22;37186;51.394;5.454;2023-04-03T11:15:29;8.40;73.00
26821;DHT22;37186;51.394;5.454;2023-04-03T11:18:49;8.50;73.60
26821;DHT22;37186;51.394;5.454;2023-04-03T11:21:57;8.50;72.20
26821;DHT22;37186;51.394;5.454;2023-04-03T11:25:23;8.60;72.20
26821;DHT22;37186;51.394;5.454;2023-04-03T11:28:23;8.60;73.70
26821;DHT22;37186;51.394;5.454;2023-04-03T11:34:59;8.80;73.20
26821;DHT22;37186;51.394;5.454;2023-04-03T11:38:04;8.80;72.80
26821;DHT22;37186;51.394;5.454;2023-04-03T11:41:08;8.80;73.20
26821;DHT22;37186;51.394;5.454;2023-04-03T11:47:47;9.00;72.40
26821;DHT22;37186;51.394;5.454;2023-04-03T11:50:48;9.10;72.70
26821;DHT22;37186;51.394;5.454;2023-04-03T11:53:50;9.10;72.80
26821;DHT22;37186;51.394;5.454;2023-04-03T11:56:52;9.20;72.60
26821;DHT22;37186;51.394;5.454;2023-04-03T11:59:52;9.30;73.00
26821;DHT22;37186;51.394;5.454;2023-04-03T12:02:53;9.40;73.50
26821;DHT22;37186;51.394;5.454;2023-04-03T12:09:00;9.50;72.60
26821;DHT22;37186;51.394;5.454;2023-04-03T12:12:26;9.60;72.30
26821;DHT22;37186;51.394;5.454;2023-04-03T12:24:58;9.90;71.50
26821;DHT22;37186;51.394;5.454;2023-04-03T12:28:19;10.00;71.00
26821;DHT22;37186;51.394;5.454;2023-04-03T12:31:22;10.00;71.80
26821;DHT22;37186;51.394;5.454;2023-04-03T12:34:37;10.10;71.40
26821;DHT22;37186;51.394;5.454;2023-04-03T12:44:54;10.40;72.00
26821;DHT22;37186;51.394;5.454;2023-04-03T12:47:56;10.50;72.60
26821;DHT22;37186;51.394;5.454;2023-04-03T12:50:58;10.50;72.10
26821;DHT22;37186;51.394;5.454;2023-04-03T12:54:16;10.60;72.40
26821;DHT22;37186;51.394;5.454;2023-04-03T12:57:21;10.70;72.80
26821;DHT22;37186;51.394;5.454;2023-04-03T13:00:35;10.80;72.20
26821;DHT22;37186;51.394;5.454;2023-04-03T13:03:38;10.80;72.10
26821;DHT22;37186;51.394;5.454;2023-04-03T13:06:41;10.90;72.10
26821;DHT22;37186;51.394;5.454;2023-04-03T13:09:42;11.00;72.40
26821;DHT22;37186;51.394;5.454;2023-04-03T13:15:54;11.20;71.60
26821;DHT22;37186;51.394;5.454;2023-04-03T13:18:55;11.20;71.20
26821;DHT22;37186;51.394;5.454;2023-04-03T13:22:01;11.30;71.10
26821;DHT22;37186;51.394;5.454;2023-04-03T13:25:07;11.30;70.40
26821;DHT22;37186;51.394;5.454;2023-04-03T13:28:12;11.40;71.60
26821;DHT22;37186;51.394;5.454;2023-04-03T13:34:18;11.50;71.40
26821;DHT22;37186;51.394;5.454;2023-04-03T13:37:25;11.60;71.40
26821;DHT22;37186;51.394;5.454;2023-04-03T13:40:26;11.60;71.60
26821;DHT22;37186;51.394;5.454;2023-04-03T13:43:30;11.60;71.60
26821;DHT22;37186;51.394;5.454;2023-04-03T13:46:31;11.70;71.50
26821;DHT22;37186;51.394;5.454;2023-04-03T13:49:33;11.70;70.70
26821;DHT22;37186;51.394;5.454;2023-04-03T13:56:05;11.80;71.10
26821;DHT22;37186;51.394;5.454;2023-04-03T14:02:28;11.90;70.20
26821;DHT22;37186;51.394;5.454;2023-04-03T14:05:29;11.90;70.70
26821;DHT22;37186;51.394;5.454;2023-04-03T14:08:29;12.00;69.60
26821;DHT22;37186;51.394;5.454;2023-04-03T14:11:30;12.00;70.70
26821;DHT22;37186;51.394;5.454;2023-04-03T14:14:34;12.00;70.50
26821;DHT22;37186;51.394;5.454;2023-04-03T14:17:35;12.10;70.60
26821;DHT22;37186;51.394;5.454;2023-04-03T14:20:36;12.10;69.90
26821;DHT22;37186;51.394;5.454;2023-04-03T14:23:36;12.20;68.70
26821;DHT22;37186;51.394;5.454;2023-04-03T14:26:37;12.20;70.30
26821;DHT22;37186;51.394;5.454;2023-04-03T14:29:38;12.30;69.10
26821;DHT22;37186;51.394;5.454;2023-04-03T14:32:38;12.30;70.20
26821;DHT22;37186;51.394;5.454;2023-04-03T14:35:39;12.30;70.00
26821;DHT22;37186;51.394;5.454;2023-04-03T14:38:39;12.40;69.60
26821;DHT22;37186;51.394;5.454;2023-04-03T14:41:40;12.40;69.30
26821;DHT22;37186;51.394;5.454;2023-04-03T14:44:41;12.50;69.50
26821;DHT22;37186;51.394;5.454;2023-04-03T14:47:51;12.50;69.50
26821;DHT22;37186;51.394;5.454;2023-04-03T14:50:52;12.50;69.20
26821;DHT22;37186;51.394;5.454;2023-04-03T14:53:53;12.60;69.10
26821;DHT22;37186;51.394;5.454;2023-04-03T14:56:58;12.70;69.60
26821;DHT22;37186;51.394;5.454;2023-04-03T14:59:59;12.70;68.80
26821;DHT22;37186;51.394;5.454;2023-04-03T15:03:01;12.80;69.30
26821;DHT22;37186;51.394;5.454;2023-04-03T15:06:02;12.80;69.90
26821;DHT22;37186;51.394;5.454;2023-04-03T15:09:03;12.90;70.00
26821;DHT22;37186;51.394;5.454;2023-04-03T15:12:03;13.00;69.80
26821;DHT22;37186;51.394;5.454;2023-04-03T15:15:04;13.10;69.80
26821;DHT22;37186;51.394;5.454;2023-04-03T15:18:06;13.10;69.40
26821;DHT22;37186;51.394;5.454;2023-04-03T15:21:06;13.20;70.30
26821;DHT22;37186;51.394;5.454;2023-04-03T15:24:09;13.30;70.10
26821;DHT22;37186;51.394;5.454;2023-04-03T15:27:11;13.40;70.60
26821;DHT22;37186;51.394;5.454;2023-04-03T15:30:17;13.50;71.30
26821;DHT22;37186;51.394;5.454;2023-04-03T15:33:19;13.60;71.60
26821;DHT22;37186;51.394;5.454;2023-04-03T15:36:20;13.70;70.80
26821;DHT22;37186;51.394;5.454;2023-04-03T15:39:20;13.90;71.20
26821;DHT22;37186;51.394;5.454;2023-04-03T15:42:21;14.00;71.50
26821;DHT22;37186;51.394;5.454;2023-04-03T15:45:21;14.10;70.30
26821;DHT22;37186;51.394;5.454;2023-04-03T15:48:22;14.30;72.00
26821;DHT22;37186;51.394;5.454;2023-04-03T15:51:23;14.40;71.30
26821;DHT22;37186;51.394;5.454;2023-04-03T15:54:24;14.50;72.10
26821;DHT22;37186;51.394;5.454;2023-04-03T15:57:25;14.70;72.90
26821;DHT22;37186;51.394;5.454;2023-04-03T16:00:27;14.90;72.70
26821;DHT22;37186;51.394;5.454;2023-04-03T16:03:28;15.10;71.10
26821;DHT22;37186;51.394;5.454;2023-04-03T16:06:28;15.30;73.10
26821;DHT22;37186;51.394;5.454;2023-04-03T16:09:34;15.50;72.10
26821;DHT22;37186;51.394;5.454;2023-04-03T16:12:35;15.70;71.80
26821;DHT22;37186;51.394;5.454;2023-04-03T16:15:36;15.80;70.60
26821;DHT22;37186;51.394;5.454;2023-04-03T16:18:37;16.00;71.60
26821;DHT22;37186;51.394;5.454;2023-04-03T16:21:38;16.20;71.30
26821;DHT22;37186;51.394;5.454;2023-04-03T16:24:38;16.20;70.00
26821;DHT22;37186;51.394;5.454;2023-04-03T16:27:39;16.30;70.00
26821;DHT22;37186;51.394;5.454;2023-04-03T16:30:44;16.40;69.60
26821;DHT22;37186;51.394;5.454;2023-04-03T16:33:45;16.60;70.60
26821;DHT22;37186;51.394;5.454;2023-04-03T16:36:46;16.70;68.40
26821;DHT22;37186;51.394;5.454;2023-04-03T16:39:46;16.90;70.90
26821;DHT22;37186;51.394;5.454;2023-04-03T16:42:47;17.00;69.10
26821;DHT22;37186;51.394;5.454;2023-04-03T16:45:47;17.10;69.20
26821;DHT22;37186;51.394;5.454;2023-04-03T16:48:48;17.10;68.80
26821;DHT22;37186;51.394;5.454;2023-04-03T16:51:49;17.30;67.10
26821;DHT22;37186;51.394;5.454;2023-04-03T16:54:49;17.30;67.70
26821;DHT22;37186;51.394;5.454;2023-04-03T16:57:55;17.30;68.10
26821;DHT22;37186;51.394;5.454;2023-04-03T17:00:55;17.30;65.30
26821;DHT22;37186;51.394;5.454;2023-04-03T17:03:56;17.30;67.70
26821;DHT22;37186;51.394;5.454;2023-04-03T17:06:57;17.30;66.20
26821;DHT22;37186;51.394;5.454;2023-04-03T17:09:57;17.30;67.40
26821;DHT22;37186;51.394;5.454;2023-04-03T17:12:58;17.30;66.40
26821;DHT22;37186;51.394;5.454;2023-04-03T17:15:58;17.10;65.80
26821;DHT22;37186;51.394;5.454;2023-04-03T17:19:00;17.10;66.00
26821;DHT22;37186;51.394;5.454;2023-04-03T17:22:00;16.90;62.60
26821;DHT22;37186;51.394;5.454;2023-04-03T17:25:01;16.80;64.50
26821;DHT22;37186;51.394;5.454;2023-04-03T17:28:02;16.70;63.00
26821;DHT22;37186;51.394;5.454;2023-04-03T17:31:02;16.50;61.30
26821;DHT22;37186;51.394;5.454;2023-04-03T17:34:03;16.40;62.40
26821;DHT22;37186;51.394;5.454;2023-04-03T17:37:04;16.20;62.70
26821;DHT22;37186;51.394;5.454;2023-04-03T17:40:05;16.10;62.30
26821;DHT22;37186;51.394;5.454;2023-04-03T17:43:06;16.00;63.30
26821;DHT22;37186;51.394;5.454;2023-04-03T17:46:09;15.80;63.40
26821;DHT22;37186;51.394;5.454;2023-04-03T17:49:09;15.60;61.70
26821;DHT22;37186;51.394;5.454;2023-04-03T17:52:14;15.50;61.90
26821;DHT22;37186;51.394;5.454;2023-04-03T17:55:15;15.30;61.30
26821;DHT22;37186;51.394;5.454;2023-04-03T17:58:16;15.20;60.70
26821;DHT22;37186;51.394;5.454;2023-04-03T18:01:19;15.00;60.90
26821;DHT22;37186;51.394;5.454;2023-04-03T18:04:20;14.80;61.30
26821;DHT22;37186;51.394;5.454;2023-04-03T18:07:21;14.70;60.90
26821;DHT22;37186;51.394;5.454;2023-04-03T18:10:21;14.60;61.10
26821;DHT22;37186;51.394;5.454;2023-04-03T18:13:22;14.50;60.90
26821;DHT22;37186;51.394;5.454;2023-04-03T18:16:23;14.40;61.90
26821;DHT22;37186;51.394;5.454;2023-04-03T18:19:24;14.30;62.10
26821;DHT22;37186;51.394;5.454;2023-04-03T18:22:25;14.10;61.60
26821;DHT22;37186;51.394;5.454;2023-04-03T18:25:26;14.00;60.50
26821;DHT22;37186;51.394;5.454;2023-04-03T18:28:27;13.90;61.60
26821;DHT22;37186;51.394;5.454;2023-04-03T18:31:32;13.80;61.30
26821;DHT22;37186;51.394;5.454;2023-04-03T18:34:33;13.70;61.40
26821;DHT22;37186;51.394;5.454;2023-04-03T18:37:34;13.60;61.70
26821;DHT22;37186;51.394;5.454;2023-04-03T18:40:35;13.50;61.50
26821;DHT22;37186;51.394;5.454;2023-04-03T18:43:36;13.40;61.80
26821;DHT22;37186;51.394;5.454;2023-04-03T18:46:36;13.30;62.00
26821;DHT22;37186;51.394;5.454;2023-04-03T18:49:39;13.20;62.10
26821;DHT22;37186;51.394;5.454;2023-04-03T18:52:41;13.10;61.70
26821;DHT22;37186;51.394;5.454;2023-04-03T18:55:41;13.10;61.10
26821;DHT22;37186;51.394;5.454;2023-04-03T18:58:42;13.00;61.70
26821;DHT22;37186;51.394;5.454;2023-04-03T19:01:42;12.90;62.00
26821;DHT22;37186;51.394;5.454;2023-04-03T19:04:43;12.80;61.30
26821;DHT22;37186;51.394;5.454;2023-04-03T19:07:43;12.70;62.30
26821;DHT22;37186;51.394;5.454;2023-04-03T19:10:45;12.60;62.50
26821;DHT22;37186;51.394;5.454;2023-04-03T19:13:45;12.60;62.60
26821;DHT22;37186;51.394;5.454;2023-04-03T19:16:46;12.50;62.50
26821;DHT22;37186;51.394;5.454;2023-04-03T19:19:47;12.40;62.70
26821;DHT22;37186;51.394;5.454;2023-04-03T19:22:47;12.40;63.60
26821;DHT22;37186;51.394;5.454;2023-04-03T19:26:00;12.30;63.00
26821;DHT22;37186;51.394;5.454;2023-04-03T19:29:01;12.30;62.90
26821;DHT22;37186;51.394;5.454;2023-04-03T19:32:01;12.20;63.20
26821;DHT22;37186;51.394;5.454;2023-04-03T19:35:02;12.10;63.40
26821;DHT22;37186;51.394;5.454;2023-04-03T19:38:03;12.10;62.80
26821;DHT22;37186;51.394;5.454;2023-04-03T19:41:08;12.00;62.90
26821;DHT22;37186;51.394;5.454;2023-04-03T19:44:10;12.00;62.40
26821;DHT22;37186;51.394;5.454;2023-04-03T19:47:11;11.90;63.50
26821;DHT22;37186;51.394;5.454;2023-04-03T19:50:12;11.80;62.60
26821;DHT22;37186;51.394;5.454;2023-04-03T19:53:12;11.80;63.10
26821;DHT22;37186;51.394;5.454;2023-04-03T19:56:18;11.70;63.20
26821;DHT22;37186;51.394;5.454;2023-04-03T19:59:20;11.60;62.80
26821;DHT22;37186;51.394;5.454;2023-04-03T20:02:21;11.60;63.20
26821;DHT22;37186;51.394;5.454;2023-04-03T20:05:22;11.50;63.20
26821;DHT22;37186;51.394;5.454;2023-04-03T20:08:23;11.40;63.50
26821;DHT22;37186;51.394;5.454;2023-04-03T20:11:25;11.40;63.10
26821;DHT22;37186;51.394;5.454;2023-04-03T20:14:27;11.30;63.20
26821;DHT22;37186;51.394;5.454;2023-04-03T20:17:28;11.30;63.50
26821;DHT22;37186;51.394;5.454;2023-04-03T20:20:28;11.30;63.60
26821;DHT22;37186;51.394;5.454;2023-04-03T20:23:30;11.20;63.50
26821;DHT22;37186;51.394;5.454;2023-04-03T20:26:30;11.20;63.60
26821;DHT22;37186;51.394;5.454;2023-04-03T20:29:33;11.10;63.30
26821;DHT22;37186;51.394;5.454;2023-04-03T20:32:34;11.00;63.20
26821;DHT22;37186;51.394;5.454;2023-04-03T20:35:35;11.00;63.20
26821;DHT22;37186;51.394;5.454;2023-04-03T20:38:35;11.00;63.40